Time;durP1;ratioP1;P1;durP2;ratioP2;P2;SDS_P1;SDS_P2;PMS_P1;PMS_P2;Temp;Humidity;BMP_temperature;BMP_pressure;BME280_temperature;BME280_humidity;BME280_pressure;Samples;Min_cycle;Max_cycle;Signal;HPM_P1;HPM_P2
2023/02/18 00:01:23;;;;;;;1999.90;999.90;;;11.30;99.90;;;;;;5054589;28;20516;-68
2023/02/18 00:03:49;;;;;;;1999.90;999.90;;;11.30;99.90;;;;;;5054938;28;20171;-70
2023/02/18 00:06:17;;;;;;;1999.90;999.90;;;11.40;99.90;;;;;;5054641;28;20437;-70
2023/02/18 00:08:43;;;;;;;1999.90;999.90;;;11.40;99.90;;;;;;5054689;28;20519;-69
2023/02/18 00:11:09;;;;;;;1999.90;999.90;;;11.30;99.90;;;;;;5054432;28;20413;-70
2023/02/18 00:13:36;;;;;;;1999.90;999.90;;;11.40;99.90;;;;;;5053922;28;20456;-69
2023/02/18 00:16:03;;;;;;;1999.90;999.90;;;11.30;99.90;;;;;;5054489;28;20462;-70
2023/02/18 00:18:29;;;;;;;1999.90;999.90;;;11.40;99.90;;;;;;5054460;28;20456;-69
2023/02/18 00:20:55;;;;;;;1999.90;999.90;;;11.40;99.90;;;;;;5054188;28;20449;-70
2023/02/18 00:23:21;;;;;;;1999.90;999.90;;;11.30;99.90;;;;;;5054389;28;20418;-70
2023/02/18 00:25:46;;;;;;;1999.90;999.90;;;11.40;99.90;;;;;;5054562;28;20195;-70
2023/02/18 00:28:12;;;;;;;1999.90;999.90;;;11.40;99.90;;;;;;5053968;28;20262;-69
2023/02/18 00:30:42;;;;;;;1999.90;999.90;;;11.40;99.90;;;;;;5053997;28;20214;-69
2023/02/18 00:33:08;;;;;;;1999.90;999.90;;;11.30;99.90;;;;;;5053918;28;20193;-69
2023/02/18 00:35:34;;;;;;;1999.90;999.90;;;11.30;99.90;;;;;;5053805;28;20452;-69
2023/02/18 00:37:59;;;;;;;1999.90;999.90;;;11.40;99.90;;;;;;5053781;28;20398;-70
2023/02/18 00:40:25;;;;;;;1999.90;999.90;;;11.40;99.90;;;;;;5053526;28;20200;-70
2023/02/18 00:42:50;;;;;;;1999.90;999.90;;;11.40;99.90;;;;;;5053784;28;20199;-69
2023/02/18 00:45:16;;;;;;;1999.90;999.90;;;11.40;99.90;;;;;;5053900;28;20188;-70
2023/02/18 00:47:41;;;;;;;1999.90;999.90;;;11.40;99.90;;;;;;5053660;28;20171;-70
2023/02/18 00:50:09;;;;;;;1999.90;999.90;;;11.40;99.90;;;;;;5053740;28;20179;-70
2023/02/18 00:52:35;;;;;;;1999.90;999.90;;;11.30;99.90;;;;;;5053596;28;20587;-69
2023/02/18 00:55:00;;;;;;;1999.90;999.90;;;11.30;99.90;;;;;;5053621;28;20422;-70
2023/02/18 00:57:26;;;;;;;1999.90;999.90;;;11.40;99.90;;;;;;5053365;28;20421;-69
2023/02/18 00:59:51;;;;;;;1999.90;999.90;;;11.40;99.90;;;;;;5053630;28;20172;-70
2023/02/18 01:02:17;;;;;;;1999.90;999.90;;;11.40;99.90;;;;;;5053338;28;20574;-70
2023/02/18 01:04:43;;;;;;;1999.90;999.90;;;11.30;99.90;;;;;;5053348;28;20530;-70
2023/02/18 01:07:09;;;;;;;1999.90;999.90;;;11.30;99.90;;;;;;5053352;28;20653;-69
2023/02/18 01:09:35;;;;;;;1999.90;999.90;;;11.30;99.90;;;;;;5053420;28;20176;-69
2023/02/18 01:12:01;;;;;;;1999.90;999.90;;;11.30;99.90;;;;;;5053041;28;20409;-70
2023/02/18 01:14:27;;;;;;;1999.90;999.90;;;;;;;;;;5053359;28;20403;-69
2023/02/18 01:16:53;;;;;;;1999.90;999.90;;;10.70;99.90;;;;;;5053876;28;20833;-69
2023/02/18 01:19:18;;;;;;;1999.90;999.90;;;11.20;99.90;;;;;;5053461;28;20417;-70
2023/02/18 01:21:44;;;;;;;1999.90;999.90;;;11.20;99.90;;;;;;5053113;28;20206;-70
2023/02/18 01:24:09;;;;;;;1999.90;999.90;;;11.20;99.90;;;;;;5052508;28;20299;-70
2023/02/18 01:26:35;;;;;;;1999.90;999.90;;;11.20;99.90;;;;;;5053027;28;20188;-69
2023/02/18 01:29:01;;;;;;;1999.90;999.90;;;11.20;99.90;;;;;;5053294;28;20588;-70
2023/02/18 01:31:26;;;;;;;1999.90;999.90;;;11.20;99.90;;;;;;5053302;28;20172;-70
2023/02/18 01:33:52;;;;;;;1999.90;999.90;;;11.10;99.90;;;;;;5053710;28;20187;-70
2023/02/18 01:36:17;;;;;;;1999.90;999.90;;;11.20;99.90;;;;;;5053025;28;20199;-70
2023/02/18 01:38:43;;;;;;;1999.90;999.90;;;11.20;99.90;;;;;;5053250;28;20178;-70
2023/02/18 01:41:09;;;;;;;1999.90;999.90;;;11.10;99.90;;;;;;5052716;28;20208;-70
2023/02/18 01:43:36;;;;;;;1999.90;999.90;;;11.20;99.90;;;;;;5053083;28;20586;-70
2023/02/18 01:46:06;;;;;;;1999.90;999.90;;;11.10;99.90;;;;;;5052864;28;20819;-70
2023/02/18 01:48:37;;;;;;;1999.90;999.90;;;11.10;99.90;;;;;;5052612;28;20398;-69
2023/02/18 01:51:10;;;;;;;1999.90;999.90;;;11.10;99.90;;;;;;5052617;28;20410;-70
2023/02/18 01:53:42;;;;;;;1999.90;999.90;;;11.10;99.90;;;;;;5052668;28;20521;-70
2023/02/18 01:56:15;;;;;;;1999.90;999.90;;;11.10;99.90;;;;;;5052456;28;20882;-70
2023/02/18 01:58:42;;;;;;;1999.90;999.90;;;11.10;99.90;;;;;;5052581;28;20402;-70
2023/02/18 02:01:08;;;;;;;1999.90;999.90;;;11.10;99.90;;;;;;5052270;28;20498;-69
2023/02/18 02:03:34;;;;;;;1999.90;999.90;;;11.10;99.90;;;;;;5052389;28;20398;-70
2023/02/18 02:05:59;;;;;;;1999.90;999.90;;;11.10;99.90;;;;;;5052346;28;20516;-70
2023/02/18 02:08:25;;;;;;;1999.90;999.90;;;11.20;99.90;;;;;;5052330;28;20195;-70
2023/02/18 02:11:04;;;;;;;1999.90;999.90;;;11.20;99.90;;;;;;5052093;28;20728;-70
2023/02/18 02:14:12;;;;;;;1999.90;999.90;;;11.20;99.90;;;;;;5052384;28;20424;-69
2023/02/18 02:16:50;;;;;;;1999.90;999.90;;;11.20;99.90;;;;;;5052214;28;20444;-70
2023/02/18 02:19:31;;;;;;;1999.90;999.90;;;11.30;99.90;;;;;;5052555;28;20793;-69
2023/02/18 02:22:02;;;;;;;1999.90;999.90;;;11.30;99.90;;;;;;5052091;28;20856;-70
2023/02/18 02:24:53;;;;;;;1999.90;999.90;;;11.50;99.90;;;;;;5052034;28;20410;-70
2023/02/18 02:27:27;;;;;;;1999.90;999.90;;;11.30;99.90;;;;;;5052008;28;20484;-70
2023/02/18 02:30:08;;;;;;;1999.90;999.90;;;11.30;99.90;;;;;;5052009;28;20397;-70
2023/02/18 02:33:01;;;;;;;1999.90;999.90;;;11.30;99.90;;;;;;5051746;28;20498;-70
2023/02/18 02:35:36;;;;;;;1999.90;999.90;;;11.30;99.90;;;;;;5051796;28;20422;-69
2023/02/18 02:38:10;;;;;;;1999.90;999.90;;;11.40;99.90;;;;;;5051894;28;20740;-70
2023/02/18 02:40:36;;;;;;;1999.90;999.90;;;11.40;99.90;;;;;;5051565;28;20458;-70
2023/02/18 02:43:01;;;;;;;1999.90;999.90;;;11.40;99.90;;;;;;5051902;28;20892;-70
2023/02/18 02:45:44;;;;;;;1999.90;999.90;;;11.50;99.90;;;;;;5051116;28;20193;-69
2023/02/18 02:48:16;;;;;;;1999.90;999.90;;;11.50;99.90;;;;;;5051861;28;20233;-70
2023/02/18 02:51:02;;;;;;;1999.90;999.90;;;11.50;99.90;;;;;;5051766;28;20413;-70
2023/02/18 02:53:32;;;;;;;1999.90;999.90;;;11.50;99.90;;;;;;5051860;28;20748;-70
2023/02/18 02:55:58;;;;;;;1999.90;999.90;;;11.50;99.90;;;;;;5051617;28;20468;-70
2023/02/18 02:58:23;;;;;;;1999.90;999.90;;;11.50;99.90;;;;;;5051876;28;20414;-70
2023/02/18 03:01:09;;;;;;;1999.90;999.90;;;11.50;99.90;;;;;;5051535;28;20278;-69
2023/02/18 03:03:53;;;;;;;1999.90;999.90;;;11.50;99.90;;;;;;5051694;28;20250;-70
2023/02/18 03:06:36;;;;;;;1999.90;999.90;;;11.50;99.90;;;;;;5051646;28;20496;-70
2023/02/18 03:09:45;;;;;;;1999.90;999.90;;;11.50;99.90;;;;;;5051854;28;20955;-70
2023/02/18 03:12:37;;;;;;;1999.90;999.90;;;11.50;99.90;;;;;;5051439;28;20390;-70
2023/02/18 03:15:23;;;;;;;1999.90;999.90;;;11.40;99.90;;;;;;5051738;28;20779;-70
2023/02/18 03:18:18;;;;;;;1999.90;999.90;;;11.40;99.90;;;;;;5051580;28;20420;-70
2023/02/18 03:20:55;;;;;;;1999.90;999.90;;;11.40;99.90;;;;;;5048187;28;20497;-70
2023/02/18 03:23:29;;;;;;;1999.90;999.90;;;11.40;99.90;;;;;;5051478;28;20398;-70
2023/02/18 03:25:57;;;;;;;1999.90;999.90;;;11.40;99.90;;;;;;5051295;28;20926;-69
2023/02/18 03:28:26;;;;;;;1999.90;999.90;;;11.30;99.90;;;;;;5051454;28;20390;-70
2023/02/18 03:30:57;;;;;;;1999.90;999.90;;;11.30;99.90;;;;;;5051174;28;20933;-69
2023/02/18 03:33:28;;;;;;;1999.90;999.90;;;11.30;99.90;;;;;;5051426;28;20405;-69
2023/02/18 03:35:55;;;;;;;1999.90;999.90;;;11.20;99.90;;;;;;5051307;28;20424;-69
2023/02/18 03:38:44;;;;;;;1999.90;999.90;;;11.20;99.90;;;;;;5051488;28;20418;-70
2023/02/18 03:41:10;;;;;;;1999.90;999.90;;;11.20;99.90;;;;;;5051002;28;20911;-69
2023/02/18 03:43:36;;;;;;;1999.90;999.90;;;11.10;99.90;;;;;;5051373;28;20436;-70
2023/02/18 03:46:02;;;;;;;1999.90;999.90;;;11.10;99.90;;;;;;5051185;28;20274;-69
2023/02/18 03:48:28;;;;;;;1999.90;999.90;;;11.10;99.90;;;;;;5053465;28;20297;-70
2023/02/18 03:50:53;;;;;;;1999.90;999.90;;;11.10;99.90;;;;;;5054956;28;20858;-70
2023/02/18 03:53:19;;;;;;;1999.90;999.90;;;11.20;99.90;;;;;;5055014;28;20176;-69
2023/02/18 03:55:45;;;;;;;1999.90;999.90;;;11.20;99.90;;;;;;5054789;28;20561;-70
2023/02/18 03:58:10;;;;;;;1999.90;999.90;;;11.20;99.90;;;;;;5055249;28;20204;-69
2023/02/18 04:00:36;;;;;;;1999.90;999.90;;;11.20;99.90;;;;;;5054717;28;20241;-69
2023/02/18 04:03:01;;;;;;;1999.90;999.90;;;11.20;99.90;;;;;;5054816;28;20164;-69
2023/02/18 04:05:27;;;;;;;1999.90;999.90;;;11.20;99.90;;;;;;5054606;28;20567;-69
2023/02/18 04:07:53;;;;;;;1999.90;999.90;;;11.20;99.90;;;;;;5054418;28;20177;-69
2023/02/18 04:10:19;;;;;;;1999.90;999.90;;;11.20;99.90;;;;;;5054427;28;20178;-69
2023/02/18 04:12:45;;;;;;;1999.90;999.90;;;11.10;99.90;;;;;;5054473;28;20186;-69
2023/02/18 04:15:12;;;;;;;1999.90;999.90;;;11.20;99.90;;;;;;5054369;28;20439;-69
2023/02/18 04:17:38;;;;;;;1999.90;999.90;;;11.10;99.90;;;;;;5054414;28;20168;-70
2023/02/18 04:20:04;;;;;;;1999.90;999.90;;;11.10;99.90;;;;;;5054566;28;20449;-70
2023/02/18 04:22:30;;;;;;;1999.90;999.90;;;11.10;99.90;;;;;;5054335;28;20254;-70
2023/02/18 04:24:55;;;;;;;1999.90;999.90;;;11.10;99.90;;;;;;5054332;28;20510;-70
2023/02/18 04:27:21;;;;;;;1999.90;999.90;;;11.00;99.90;;;;;;5054411;28;20194;-69
2023/02/18 04:29:47;;;;;;;1999.90;999.90;;;11.00;99.90;;;;;;5054799;28;20176;-70
2023/02/18 04:32:12;;;;;;;1999.90;999.90;;;10.90;99.90;;;;;;5054145;28;20168;-70
2023/02/18 04:34:38;;;;;;;1999.90;999.90;;;10.80;99.90;;;;;;5054193;28;20167;-70
2023/02/18 04:37:03;;;;;;;1999.90;999.90;;;10.90;99.90;;;;;;5053885;28;20175;-70
2023/02/18 04:39:29;;;;;;;1999.90;999.90;;;11.00;99.90;;;;;;5053978;28;20251;-70
2023/02/18 04:41:54;;;;;;;1999.90;999.90;;;10.80;99.90;;;;;;5066943;28;20198;-70
2023/02/18 04:44:20;;;;;;;1999.90;999.90;;;10.70;99.90;;;;;;5073928;28;20180;-70
2023/02/18 04:46:46;;;;;;;1999.90;999.90;;;10.80;99.90;;;;;;5073830;28;20553;-69
2023/02/18 04:49:12;;;;;;;1999.90;999.90;;;10.80;99.90;;;;;;5073853;28;20171;-69
2023/02/18 04:51:37;;;;;;;1999.90;999.90;;;10.90;99.90;;;;;;5073641;28;20412;-71
2023/02/18 04:54:03;;;;;;;1999.90;999.90;;;10.80;99.90;;;;;;5073717;28;20181;-70
2023/02/18 04:56:29;;;;;;;1999.90;999.90;;;10.70;99.90;;;;;;5073715;28;20656;-71
2023/02/18 04:58:54;;;;;;;1999.90;999.90;;;10.70;99.90;;;;;;5073945;28;20410;-70
2023/02/18 05:01:20;;;;;;;1999.90;999.90;;;10.70;99.90;;;;;;5073533;28;20785;-70
2023/02/18 05:03:46;;;;;;;1999.90;999.90;;;10.60;99.90;;;;;;5073621;28;20167;-70
2023/02/18 05:06:11;;;;;;;1999.90;999.90;;;10.60;99.90;;;;;;5073548;28;20579;-70
2023/02/18 05:08:37;;;;;;;1999.90;999.90;;;10.70;99.90;;;;;;5073433;28;20213;-70
2023/02/18 05:11:06;;;;;;;1999.90;999.90;;;10.50;99.90;;;;;;5073178;28;20716;-70
2023/02/18 05:13:32;;;;;;;1999.90;999.90;;;10.50;99.90;;;;;;5073323;28;20170;-70
2023/02/18 05:15:57;;;;;;;1999.90;999.90;;;10.60;99.90;;;;;;5073101;28;20569;-70
2023/02/18 05:18:23;;;;;;;1999.90;999.90;;;10.60;99.90;;;;;;5073252;28;20532;-70
2023/02/18 05:20:48;;;;;;;1999.90;999.90;;;10.60;99.90;;;;;;5072860;28;20198;-71
2023/02/18 05:23:14;;;;;;;1999.90;999.90;;;10.60;99.90;;;;;;5073115;28;20169;-71
2023/02/18 05:25:40;;;;;;;1999.90;999.90;;;10.60;99.90;;;;;;5073264;28;20562;-70
2023/02/18 05:28:05;;;;;;;1999.90;999.90;;;10.70;99.90;;;;;;5073027;28;20192;-70
2023/02/18 05:30:31;;;;;;;1999.90;999.90;;;10.60;99.90;;;;;;5072916;28;20182;-71
2023/02/18 05:32:56;;;;;;;1999.90;999.90;;;10.50;99.90;;;;;;5072952;28;20204;-71
2023/02/18 05:35:22;;;;;;;1999.90;999.90;;;10.40;99.90;;;;;;5072854;28;20192;-71
2023/02/18 05:37:47;;;;;;;1999.90;999.90;;;10.40;99.90;;;;;;5072680;28;20167;-70
2023/02/18 05:40:13;;;;;;;1999.90;999.90;;;10.40;99.90;;;;;;5072670;28;20205;-70
2023/02/18 05:42:39;;;;;;;1999.90;999.90;;;10.50;99.90;;;;;;5072778;28;20568;-70
2023/02/18 05:45:04;;;;;;;1999.90;999.90;;;10.50;99.90;;;;;;5072759;28;20198;-70
2023/02/18 05:47:30;;;;;;;1999.90;999.90;;;10.40;99.90;;;;;;5072608;28;20163;-71
2023/02/18 05:49:56;;;;;;;1999.90;999.90;;;10.50;99.90;;;;;;5072621;28;20416;-70
2023/02/18 05:52:21;;;;;;;1999.90;999.90;;;10.40;99.90;;;;;;5072400;28;20190;-70
2023/02/18 05:54:47;;;;;;;1999.90;999.90;;;10.50;99.90;;;;;;5072472;28;20192;-71
2023/02/18 05:57:15;;;;;;;1999.90;999.90;;;10.50;99.90;;;;;;5072470;28;20413;-71
2023/02/18 05:59:41;;;;;;;1999.90;999.90;;;10.50;99.90;;;;;;5072557;28;20174;-70
2023/02/18 06:02:06;;;;;;;1999.90;999.90;;;10.50;99.90;;;;;;5072066;28;20517;-70
2023/02/18 06:04:32;;;;;;;1999.90;999.90;;;10.50;99.90;;;;;;5072217;28;20495;-70
2023/02/18 06:06:57;;;;;;;1999.90;999.90;;;10.50;99.90;;;;;;5072188;28;20656;-69
2023/02/18 06:09:23;;;;;;;1999.90;999.90;;;10.50;99.90;;;;;;5072374;28;20228;-70
2023/02/18 06:11:49;;;;;;;1999.90;999.90;;;10.50;99.90;;;;;;5071755;28;20213;-70
2023/02/18 06:14:14;;;;;;;1999.90;999.90;;;10.60;99.90;;;;;;5072249;28;20170;-70
2023/02/18 06:16:40;;;;;;;1999.90;999.90;;;10.60;99.90;;;;;;5072042;28;20304;-70
2023/02/18 06:19:05;;;;;;;1999.90;999.90;;;10.60;99.90;;;;;;5072192;28;20170;-71
2023/02/18 06:21:32;;;;;;;1999.90;999.90;;;10.70;99.90;;;;;;5071861;28;20594;-70
2023/02/18 06:23:57;;;;;;;1999.90;999.90;;;10.70;99.90;;;;;;5072288;28;20224;-70
2023/02/18 06:26:23;;;;;;;1999.90;999.90;;;10.70;99.90;;;;;;5071946;28;21002;-70
2023/02/18 06:28:48;;;;;;;1999.90;999.90;;;10.80;99.90;;;;;;5072168;28;20177;-70
2023/02/18 06:31:14;;;;;;;1999.90;999.90;;;10.80;99.90;;;;;;5071931;28;20174;-70
2023/02/18 06:33:40;;;;;;;1999.90;999.90;;;10.80;99.90;;;;;;5071959;28;20228;-70
2023/02/18 06:36:07;;;;;;;1999.90;999.90;;;10.80;99.90;;;;;;5071868;28;20198;-70
2023/02/18 06:38:34;;;;;;;1999.90;999.90;;;10.90;99.90;;;;;;5071916;28;20198;-70
2023/02/18 06:41:00;;;;;;;1999.90;999.90;;;10.90;99.90;;;;;;5071597;28;20456;-70
2023/02/18 06:43:26;;;;;;;1999.90;999.90;;;10.90;99.90;;;;;;5072053;28;20400;-70
2023/02/18 06:45:52;;;;;;;1999.90;999.90;;;11.10;99.90;;;;;;5071648;28;21014;-70
2023/02/18 06:48:17;;;;;;;1999.90;999.90;;;11.10;99.90;;;;;;5071858;28;20169;-70
2023/02/18 06:50:44;;;;;;;1999.90;999.90;;;11.00;99.90;;;;;;5071691;28;20509;-70
2023/02/18 06:53:09;;;;;;;1999.90;999.90;;;11.00;99.90;;;;;;5071813;28;20175;-70
2023/02/18 06:55:35;;;;;;;1999.90;999.90;;;11.10;99.90;;;;;;5071891;28;20425;-70
2023/02/18 06:58:01;;;;;;;1999.90;999.90;;;11.10;99.90;;;;;;5071781;28;20417;-69
2023/02/18 07:00:26;;;;;;;1999.90;999.90;;;11.10;99.90;;;;;;5071502;28;20191;-70
2023/02/18 07:02:52;;;;;;;1999.90;999.90;;;11.10;99.90;;;;;;5071723;28;20163;-71
2023/02/18 07:05:17;;;;;;;1999.90;999.90;;;11.10;99.90;;;;;;5071687;28;20182;-70
2023/02/18 07:07:44;;;;;;;1999.90;999.90;;;11.10;99.90;;;;;;5071598;28;20706;-69
2023/02/18 07:10:10;;;;;;;1999.90;999.90;;;11.10;99.90;;;;;;5071657;28;20182;-70
2023/02/18 07:12:36;;;;;;;1999.90;999.90;;;11.10;99.90;;;;;;5071437;28;20753;-70
2023/02/18 07:15:02;;;;;;;1999.90;999.90;;;11.00;99.90;;;;;;5071961;28;20443;-70
2023/02/18 07:17:27;;;;;;;1999.90;999.90;;;11.00;99.90;;;;;;5071469;28;20555;-70
2023/02/18 07:19:54;;;;;;;1999.90;999.90;;;11.10;99.90;;;;;;5071439;28;20405;-70
2023/02/18 07:22:20;;;;;;;1999.90;999.90;;;11.00;99.90;;;;;;5071873;28;20232;-70
2023/02/18 07:24:51;;;;;;;1999.90;999.90;;;10.90;99.90;;;;;;5075366;28;20466;-70
2023/02/18 07:27:16;;;;;;;1999.90;999.90;;;11.00;99.90;;;;;;5075489;28;20566;-70
2023/02/18 07:29:42;;;;;;;1999.90;999.90;;;11.10;99.90;;;;;;5075317;28;20404;-70
2023/02/18 07:32:07;;;;;;;1999.90;999.90;;;11.10;99.90;;;;;;5075015;28;20180;-69
2023/02/18 07:34:33;;;;;;;1999.90;999.90;;;11.10;99.90;;;;;;5075102;28;20178;-70
2023/02/18 07:36:58;;;;;;;1999.90;999.90;;;11.00;99.90;;;;;;5075218;28;20236;-70
2023/02/18 07:39:24;;;;;;;1999.90;999.90;;;11.00;99.90;;;;;;5074937;28;20203;-69
2023/02/18 07:41:49;;;;;;;1999.90;999.90;;;10.90;99.90;;;;;;5075051;28;20210;-71
2023/02/18 07:44:15;;;;;;;1999.90;999.90;;;10.80;99.90;;;;;;5075057;28;20171;-70
2023/02/18 07:46:41;;;;;;;1999.90;999.90;;;10.60;99.90;;;;;;5074736;28;20197;-70
2023/02/18 07:49:07;;;;;;;1999.90;999.90;;;10.40;99.90;;;;;;5074950;28;20260;-70
2023/02/18 07:51:33;;;;;;;1999.90;999.90;;;10.30;99.90;;;;;;5074853;28;20412;-71
2023/02/18 07:53:59;;;;;;;1999.90;999.90;;;10.20;99.90;;;;;;5074955;28;20415;-70
2023/02/18 07:56:24;;;;;;;1999.90;999.90;;;10.10;99.90;;;;;;5074663;28;20200;-70
2023/02/18 07:58:50;;;;;;;1999.90;999.90;;;10.00;99.90;;;;;;5074818;28;20284;-71
2023/02/18 08:01:16;;;;;;;1999.90;999.90;;;10.00;99.90;;;;;;5074539;28;20226;-70
2023/02/18 08:03:41;;;;;;;1999.90;999.90;;;10.20;99.90;;;;;;5074657;28;20183;-70
2023/02/18 08:06:15;;;;;;;1999.90;999.90;;;10.00;99.90;;;;;;5074455;28;20275;-70
2023/02/18 08:08:41;;;;;;;1999.90;999.90;;;10.00;99.90;;;;;;5074646;28;20225;-70
2023/02/18 08:11:06;;;;;;;1999.90;999.90;;;10.00;99.90;;;;;;5074374;28;20412;-70
2023/02/18 08:13:32;;;;;;;1999.90;999.90;;;10.10;99.90;;;;;;5074463;28;20184;-70
2023/02/18 08:15:58;;;;;;;1999.90;999.90;;;10.10;99.90;;;;;;5074285;28;20201;-70
2023/02/18 08:18:25;;;;;;;1999.90;999.90;;;9.90;99.90;;;;;;5074344;28;20491;-70
2023/02/18 08:20:50;;;;;;;1999.90;999.90;;;10.00;99.90;;;;;;5074111;28;20202;-70
2023/02/18 08:23:19;;;;;;;1999.90;999.90;;;10.00;99.90;;;;;;5074259;28;20502;-70
2023/02/18 08:25:47;;;;;;;1999.90;999.90;;;10.10;99.90;;;;;;5074218;28;20624;-70
2023/02/18 08:28:13;;;;;;;1999.90;999.90;;;10.10;99.90;;;;;;5074031;28;20913;-70
2023/02/18 08:30:44;;;;;;;1999.90;999.90;;;10.20;99.90;;;;;;5073932;28;20410;-71
2023/02/18 08:33:09;;;;;;;1999.90;999.90;;;10.20;99.90;;;;;;5073792;28;20182;-70
2023/02/18 08:35:35;;;;;;;1999.90;999.90;;;10.30;99.90;;;;;;5074027;28;20519;-68
2023/02/18 08:38:01;;;;;;;1999.90;999.90;;;10.30;99.90;;;;;;5073988;28;20170;-70
2023/02/18 08:40:26;;;;;;;1999.90;999.90;;;10.20;99.90;;;;;;5073598;28;20674;-70
2023/02/18 08:42:52;;;;;;;1999.90;999.90;;;10.30;99.90;;;;;;5073986;28;20167;-69
2023/02/18 08:45:18;;;;;;;1999.90;999.90;;;10.20;99.90;;;;;;5073722;28;20200;-69
2023/02/18 08:47:43;;;;;;;1999.90;999.90;;;10.20;99.90;;;;;;5073785;28;20173;-70
2023/02/18 08:50:09;;;;;;;1999.90;999.90;;;10.20;99.90;;;;;;5073826;28;20413;-70
2023/02/18 08:52:35;;;;;;;1999.90;999.90;;;10.30;99.90;;;;;;5073626;28;20174;-70
2023/02/18 08:55:01;;;;;;;1999.90;999.90;;;10.30;99.90;;;;;;5073770;28;20512;-70
2023/02/18 08:57:27;;;;;;;1999.90;999.90;;;10.40;99.90;;;;;;5073691;28;20185;-70
2023/02/18 08:59:53;;;;;;;1999.90;999.90;;;10.40;99.90;;;;;;5073506;28;20402;-70
2023/02/18 09:02:18;;;;;;;1999.90;999.90;;;10.30;99.90;;;;;;5073310;28;20746;-70
2023/02/18 09:04:44;;;;;;;1999.90;999.90;;;10.20;99.90;;;;;;5073444;28;20216;-69
2023/02/18 09:07:09;;;;;;;1999.90;999.90;;;10.40;99.90;;;;;;5073544;28;20306;-70
2023/02/18 09:09:35;;;;;;;1999.90;999.90;;;10.40;99.90;;;;;;5073379;28;20574;-70
2023/02/18 09:12:00;;;;;;;1999.90;999.90;;;10.40;99.90;;;;;;5073233;28;20178;-70
2023/02/18 09:14:26;;;;;;;1999.90;999.90;;;10.40;99.90;;;;;;5073165;28;20203;-69
2023/02/18 09:16:52;;;;;;;1999.90;999.90;;;10.50;99.90;;;;;;5073387;28;20663;-71
2023/02/18 09:19:18;;;;;;;1999.90;999.90;;;10.50;99.90;;;;;;5073201;28;20589;-70
2023/02/18 09:21:43;;;;;;;1999.90;999.90;;;10.70;99.90;;;;;;5072957;28;20205;-70
2023/02/18 09:24:09;;;;;;;1999.90;999.90;;;10.60;99.90;;;;;;5073101;28;20549;-70
2023/02/18 09:26:35;;;;;;;1999.90;999.90;;;10.60;99.90;;;;;;5072918;28;20197;-70
2023/02/18 09:29:01;;;;;;;1999.90;999.90;;;10.50;99.90;;;;;;5072939;28;20189;-69
2023/02/18 09:31:27;;;;;;;1999.90;999.90;;;10.60;99.90;;;;;;5072748;28;20782;-69
2023/02/18 09:33:56;;;;;;;1999.90;999.90;;;10.50;99.90;;;;;;5072999;28;20542;-69
2023/02/18 09:36:22;;;;;;;1999.90;999.90;;;10.60;99.90;;;;;;5072834;28;20460;-69
2023/02/18 09:38:48;;;;;;;1999.90;999.90;;;10.60;99.90;;;;;;5072818;28;20922;-69
2023/02/18 09:41:29;;;;;;;1999.90;999.90;;;10.70;99.90;;;;;;5072465;28;20209;-69
2023/02/18 09:44:01;;;;;;;1999.90;999.90;;;10.70;99.90;;;;;;5072582;28;20412;-68
2023/02/18 09:46:47;;;;;;;1999.90;999.90;;;10.80;99.90;;;;;;5071899;28;20434;-69
2023/02/18 09:49:20;;;;;;;1999.90;999.90;;;10.90;99.90;;;;;;5072658;28;20429;-68
2023/02/18 09:51:46;;;;;;;1999.90;999.90;;;10.90;99.90;;;;;;5072365;28;20412;-69
2023/02/18 09:54:15;;;;;;;1999.90;999.90;;;10.90;99.90;;;;;;5072486;28;20416;-69
2023/02/18 09:56:41;;;;;;;1999.90;999.90;;;11.10;99.90;;;;;;5072345;28;20429;-68
2023/02/18 09:59:13;;;;;;;1999.90;999.90;;;11.00;99.90;;;;;;5072315;28;20397;-69
2023/02/18 10:01:41;;;;;;;1999.90;999.90;;;11.10;99.90;;;;;;5072219;28;20506;-68
2023/02/18 10:04:18;;;;;;;1999.90;999.90;;;11.10;99.90;;;;;;5072430;28;20500;-69
2023/02/18 10:06:46;;;;;;;1999.90;999.90;;;11.20;99.90;;;;;;5072121;28;20424;-69
2023/02/18 10:09:21;;;;;;;1999.90;999.90;;;11.20;99.90;;;;;;5072274;28;20401;-69
2023/02/18 10:12:17;;;;;;;1999.90;999.90;;;11.10;99.90;;;;;;5071412;28;20400;-69
2023/02/18 10:14:48;;;;;;;1999.90;999.90;;;11.20;99.90;;;;;;5068219;28;20417;-68
2023/02/18 10:17:16;;;;;;;1999.90;999.90;;;11.10;99.90;;;;;;5071781;28;20396;-69
2023/02/18 10:19:44;;;;;;;1999.90;999.90;;;11.20;99.90;;;;;;5071331;28;20453;-70
2023/02/18 10:22:13;;;;;;;1999.90;999.90;;;11.20;99.90;;;;;;5071567;28;20459;-69
2023/02/18 10:24:47;;;;;;;1999.90;999.90;;;11.20;99.90;;;;;;5071726;28;21308;-68
2023/02/18 10:27:29;;;;;;;1999.90;999.90;;;11.20;99.90;;;;;;5071203;28;20830;-69
2023/02/18 10:30:33;;;;;;;1999.90;999.90;;;11.20;99.90;;;;;;5071787;28;20409;-68
2023/02/18 10:33:28;;;;;;;1999.90;999.90;;;11.20;99.90;;;;;;5071871;28;20447;-69
2023/02/18 10:36:23;;;;;;;1999.90;999.90;;;11.20;99.90;;;;;;5065786;28;20524;-68
2023/02/18 10:39:04;;;;;;;1999.90;999.90;;;11.20;99.90;;;;;;5041607;28;20410;-67
2023/02/18 10:41:42;;;;;;;1999.90;999.90;;;11.20;99.90;;;;;;5057435;28;20448;-69
2023/02/18 10:44:31;;;;;;;1999.90;999.90;;;11.30;99.90;;;;;;5067802;28;20474;-68
2023/02/18 10:47:59;;;;;;;1999.90;999.90;;;11.30;99.90;;;;;;5070995;28;20774;-69
2023/02/18 10:50:29;;;;;;;1999.90;999.90;;;11.30;99.90;;;;;;5054421;28;20563;-68
2023/02/18 10:53:00;;;;;;;1999.90;999.90;;;11.20;99.90;;;;;;5051652;28;20904;-68
2023/02/18 10:55:44;;;;;;;1999.90;999.90;;;11.30;99.90;;;;;;5064606;28;20441;-68
2023/02/18 10:58:31;;;;;;;1999.90;999.90;;;11.10;99.90;;;;;;5054826;28;20398;-68
2023/02/18 11:01:13;;;;;;;1999.90;999.90;;;10.90;99.90;;;;;;5058559;28;20946;-67
2023/02/18 11:03:44;;;;;;;1999.90;999.90;;;10.80;99.90;;;;;;5075969;28;20400;-67
2023/02/18 11:06:23;;;;;;;1999.90;999.90;;;10.70;99.90;;;;;;5055846;28;20450;-68
2023/02/18 11:08:49;;;;;;;1999.90;999.90;;;10.60;99.90;;;;;;5055353;28;20456;-68
2023/02/18 11:11:22;;;;;;;1999.90;999.90;;;10.50;99.90;;;;;;5054241;28;20405;-68
2023/02/18 11:13:57;;;;;;;1999.90;999.90;;;10.40;99.90;;;;;;5055279;28;20416;-69
2023/02/18 11:16:37;;;;;;;1999.90;999.90;;;10.30;99.90;;;;;;5054860;28;20425;-68
2023/02/18 11:19:03;;;;;;;1999.90;999.90;;;10.30;99.90;;;;;;5073874;28;20828;-69
2023/02/18 11:21:30;;;;;;;1999.90;999.90;;;10.30;99.90;;;;;;5074518;28;20448;-69
2023/02/18 11:24:04;;;;;;;1999.90;999.90;;;10.30;99.90;;;;;;5074960;28;20401;-69
2023/02/18 11:26:33;;;;;;;1999.90;999.90;;;10.40;99.90;;;;;;5074041;28;20968;-69
2023/02/18 11:29:20;;;;;;;1999.90;999.90;;;10.40;99.90;;;;;;5074855;28;20401;-69
2023/02/18 11:31:48;;;;;;;1999.90;999.90;;;10.30;99.90;;;;;;5074692;28;20511;-69
2023/02/18 11:34:20;;;;;;;1999.90;999.90;;;10.40;99.90;;;;;;5074072;28;20393;-69
2023/02/18 11:36:47;;;;;;;1999.90;999.90;;;10.20;99.90;;;;;;5074755;28;20427;-69
2023/02/18 11:39:23;;;;;;;1999.90;999.90;;;10.20;99.90;;;;;;5074618;28;20494;-69
2023/02/18 11:42:17;;;;;;;1999.90;999.90;;;10.10;99.90;;;;;;5072790;28;20462;-68
2023/02/18 11:44:54;;;;;;;1999.90;999.90;;;10.20;99.90;;;;;;5072981;28;20420;-69
2023/02/18 11:47:39;;;;;;;1999.90;999.90;;;10.20;99.90;;;;;;5074713;28;20432;-68
2023/02/18 11:50:08;;;;;;;1999.90;999.90;;;10.10;99.90;;;;;;5074210;28;20787;-69
2023/02/18 11:52:45;;;;;;;1999.90;999.90;;;10.10;99.90;;;;;;5074138;28;20436;-69
2023/02/18 11:55:19;;;;;;;1999.90;999.90;;;10.10;99.90;;;;;;5066340;28;20428;-69
2023/02/18 11:57:56;;;;;;;1999.90;999.90;;;10.10;99.90;;;;;;5073827;28;20911;-69
2023/02/18 12:00:38;;;;;;;1999.90;999.90;;;10.10;99.90;;;;;;5073897;28;20530;-69
2023/02/18 12:03:14;;;;;;;1999.90;999.90;;;10.10;99.90;;;;;;5074087;28;20381;-69
2023/02/18 12:05:41;;;;;;;1999.90;999.90;;;10.10;99.90;;;;;;5074364;28;20517;-68
2023/02/18 12:08:13;;;;;;;1999.90;999.90;;;10.20;99.90;;;;;;5073591;28;20566;-69
2023/02/18 12:10:52;;;;;;;1999.90;999.90;;;10.20;99.90;;;;;;5073670;28;20416;-68